Terminal Aerodrome Forecast
Issued by NWS

Home | Current Version | Previous Version | Text Only | Print | Product List | Glossary On
Versions: 1 2 3 4 5 6 7 8 9 10 11 12
000
FTUS44 KLZK 282300
TAFLLQ
TAF
KLLQ 282340Z 2900/2924 15010KT P6SM BKN250 WS020/28035KT
     FM291100 23007KT P6SM BKN250 WS020/24050KT
     FM291400 28005KT P6SM SCT015 BKN250
     FM291900 34010G18KT P6SM SCT025=

USA.gov is the U.S. government's official web portal to all federal, state and local government web resources and services.